createdAt,value
2022-07-29T00:01:39.772Z,17.75
2022-07-29T00:04:05.701Z,17.58
2022-07-29T00:06:31.614Z,17.57
2022-07-29T00:08:57.464Z,17.66
2022-07-29T00:11:23.387Z,17.80
2022-07-29T00:13:51.135Z,17.67
2022-07-29T00:16:17.179Z,17.75
2022-07-29T04:04:12.978Z,17.36
2022-07-29T04:06:41.467Z,17.38
2022-07-29T04:09:07.635Z,17.35
2022-07-29T04:12:01.577Z,17.34
2022-07-29T04:14:24.125Z,17.31
2022-07-29T04:16:49.910Z,17.43
2022-07-29T04:19:15.709Z,17.45
2022-07-29T04:21:41.791Z,17.70
2022-07-29T04:24:08.470Z,17.58
2022-07-29T04:26:34.839Z,17.71
2022-07-29T04:29:01.244Z,17.71
2022-07-29T04:31:27.302Z,17.70
2022-07-29T04:33:53.573Z,17.70
2022-07-29T04:36:29.357Z,17.78
2022-07-29T04:38:55.954Z,17.82
2022-07-29T04:41:21.725Z,17.78
2022-07-29T04:43:47.905Z,17.80
2022-07-29T04:46:13.736Z,17.83
2022-07-29T04:48:39.680Z,17.70
2022-07-29T04:51:05.558Z,17.81
2022-07-29T04:53:31.409Z,17.75
2022-07-29T04:55:57.246Z,17.73
2022-07-29T04:58:23.871Z,17.76
2022-07-29T05:00:50.629Z,17.86
2022-07-29T05:03:16.652Z,17.84
2022-07-29T05:05:42.655Z,18.01
2022-07-29T05:08:08.596Z,17.98
2022-07-29T05:10:38.243Z,17.97
2022-07-29T05:13:07.905Z,17.99
2022-07-29T05:15:34.879Z,18.02
2022-07-29T05:18:01.313Z,18.01
2022-07-29T05:20:28.551Z,18.00
2022-07-29T05:22:56.409Z,17.87
2022-07-29T05:25:22.259Z,17.96
2022-07-29T05:27:48.104Z,17.96
2022-07-29T05:30:16.930Z,17.97
2022-07-29T05:32:42.843Z,17.84
2022-07-29T05:35:09.008Z,17.67
2022-07-29T05:37:34.876Z,17.90
2022-07-29T05:40:00.728Z,17.93
2022-07-29T05:42:26.835Z,17.88
2022-07-29T05:44:53.406Z,17.89
2022-07-29T05:47:19.394Z,17.95
2022-07-29T05:49:46.314Z,17.99
2022-07-29T05:52:13.413Z,18.00
2022-07-29T05:54:39.940Z,18.06
2022-07-29T05:57:06.023Z,18.00
2022-07-29T05:59:36.206Z,18.03
2022-07-29T06:02:02.121Z,18.08
2022-07-29T06:04:28.027Z,18.13
2022-07-29T06:06:53.880Z,18.01
2022-07-29T06:09:19.684Z,18.16
2022-07-29T06:11:45.995Z,18.24
2022-07-29T06:14:12.213Z,18.30
2022-07-29T06:16:38.556Z,18.02
2022-07-29T06:19:04.868Z,18.04
2022-07-29T06:21:30.668Z,17.90
2022-07-29T06:23:56.493Z,18.02
2022-07-29T06:26:31.011Z,17.92
2022-07-29T06:28:57.455Z,17.91
2022-07-29T06:31:23.324Z,18.00
2022-07-29T06:33:49.222Z,18.10
2022-07-29T06:36:15.781Z,18.08
2022-07-29T06:38:49.488Z,18.13
2022-07-29T06:41:18.242Z,18.33
2022-07-29T06:43:51.730Z,18.19
2022-07-29T06:46:20.097Z,18.28
2022-07-29T06:48:47.791Z,18.35
2022-07-29T06:51:13.794Z,18.30
2022-07-29T06:53:39.825Z,18.30
2022-07-29T06:56:25.313Z,18.48
2022-07-29T06:58:51.232Z,18.42
2022-07-29T07:01:17.196Z,18.54
2022-07-29T07:03:43.058Z,18.48
2022-07-29T07:06:14.645Z,18.43
2022-07-29T07:08:40.849Z,18.62
2022-07-29T07:11:07.482Z,18.46
2022-07-29T07:13:34.697Z,18.42
2022-07-29T07:16:03.681Z,18.67
2022-07-29T07:18:29.592Z,18.85
2022-07-29T07:20:57.070Z,18.95
2022-07-29T07:23:23.063Z,19.06
2022-07-29T07:25:48.924Z,19.18
2022-07-29T07:28:14.735Z,19.20
2022-07-29T07:30:40.645Z,19.17
2022-07-29T07:33:06.658Z,19.39
2022-07-29T07:35:32.876Z,19.54
2022-07-29T07:37:59.033Z,19.57
2022-07-29T07:40:25.198Z,19.68
2022-07-29T07:42:51.108Z,19.54
2022-07-29T07:45:17.780Z,19.41
2022-07-29T07:47:43.964Z,19.32
2022-07-29T07:50:16.334Z,19.21
2022-07-29T07:52:54.739Z,19.32
2022-07-29T07:55:20.837Z,19.36
2022-07-29T07:57:47.203Z,19.35
2022-07-29T08:00:15.146Z,19.46
2022-07-29T08:02:41.133Z,19.41
2022-07-29T08:05:07.947Z,19.65
2022-07-29T08:07:38.702Z,19.76
2022-07-29T08:10:04.989Z,19.96
2022-07-29T08:12:30.816Z,20.18
2022-07-29T08:14:56.766Z,20.30
2022-07-29T08:17:25.363Z,20.31
2022-07-29T08:19:51.244Z,20.44
2022-07-29T08:22:17.132Z,20.46
2022-07-29T08:24:43.019Z,20.48
2022-07-29T08:27:33.592Z,20.56
2022-07-29T08:29:56.903Z,20.49
2022-07-29T08:32:50.826Z,20.62
2022-07-29T08:35:09.243Z,20.78
2022-07-29T08:37:35.162Z,20.85
2022-07-29T08:40:00.953Z,20.90
2022-07-29T08:42:26.773Z,21.11
2022-07-29T08:44:53.988Z,21.21
2022-07-29T08:47:19.860Z,21.27
2022-07-29T08:49:47.387Z,21.18
2022-07-29T08:52:14.589Z,21.32
2022-07-29T08:54:43.997Z,21.43
2022-07-29T08:57:13.222Z,21.58
2022-07-29T08:59:42.704Z,21.56
2022-07-29T09:02:19.010Z,21.83
2022-07-29T09:04:45.470Z,21.96
2022-07-29T09:07:15.249Z,22.10
2022-07-29T09:09:41.458Z,21.94
2022-07-29T09:12:08.482Z,22.10
2022-07-29T09:14:34.569Z,22.21
2022-07-29T09:17:01.612Z,22.37
2022-07-29T09:19:33.695Z,22.45
2022-07-29T09:22:02.985Z,22.64
2022-07-29T09:24:47.585Z,22.52
2022-07-29T09:27:29.274Z,22.67
2022-07-29T09:30:10.903Z,22.82
2022-07-29T09:33:06.186Z,22.89
2022-07-29T09:35:32.238Z,23.00
2022-07-29T09:37:58.144Z,22.97
2022-07-29T09:40:27.112Z,22.90
2022-07-29T09:42:57.119Z,22.81
2022-07-29T09:45:33.832Z,22.76
2022-07-29T09:48:13.529Z,23.17
2022-07-29T09:50:40.812Z,23.38
2022-07-29T09:53:07.071Z,23.73
2022-07-29T09:55:32.889Z,23.53
2022-07-29T09:58:20.116Z,23.42
2022-07-29T10:00:47.327Z,23.76
2022-07-29T10:03:14.947Z,24.06
2022-07-29T10:05:42.282Z,24.01
2022-07-29T10:08:09.180Z,23.74
2022-07-29T10:10:37.344Z,23.65
2022-07-29T10:13:09.814Z,23.85
2022-07-29T10:15:41.019Z,23.81
2022-07-29T10:18:08.503Z,23.60
2022-07-29T10:20:35.277Z,23.24
2022-07-29T10:23:01.235Z,22.93
2022-07-29T10:25:27.468Z,22.87
2022-07-29T10:27:55.095Z,22.98
2022-07-29T10:30:23.415Z,23.01
2022-07-29T10:32:55.167Z,23.15
2022-07-29T10:35:38.671Z,23.37
2022-07-29T10:38:07.570Z,23.35
2022-07-29T10:40:59.997Z,23.27
2022-07-29T10:43:36.370Z,23.21
2022-07-29T10:46:04.864Z,22.97
2022-07-29T10:48:33.886Z,23.03
2022-07-29T10:51:04.329Z,23.16
2022-07-29T10:53:51.060Z,23.06
2022-07-29T10:56:28.854Z,23.10
2022-07-29T10:59:26.575Z,23.07
2022-07-29T11:02:10.881Z,23.11
2022-07-29T11:04:44.138Z,23.24
2022-07-29T11:07:10.909Z,23.22
2022-07-29T11:09:38.384Z,23.30
2022-07-29T11:12:36.122Z,23.32
2022-07-29T11:15:02.887Z,23.44
2022-07-29T11:17:46.922Z,23.57
2022-07-29T11:20:36.504Z,23.74
2022-07-29T11:23:25.069Z,24.37
2022-07-29T11:26:27.730Z,24.63
2022-07-29T11:28:59.745Z,25.01
2022-07-29T11:31:48.803Z,25.02
2022-07-29T11:34:21.632Z,25.02
2022-07-29T11:37:06.882Z,25.05
2022-07-29T11:39:36.772Z,25.30
2022-07-29T11:42:28.156Z,25.39
2022-07-29T11:44:58.978Z,25.63
2022-07-29T11:47:38.326Z,25.66
2022-07-29T11:50:10.254Z,26.03
2022-07-29T11:52:50.085Z,26.11
2022-07-29T11:55:18.699Z,26.31
2022-07-29T11:58:03.476Z,26.02
2022-07-29T12:00:38.052Z,26.24
2022-07-29T12:03:09.706Z,26.39
2022-07-29T12:05:48.224Z,26.66
2022-07-29T12:08:22.228Z,26.94
2022-07-29T12:10:50.893Z,26.95
2022-07-29T12:13:19.196Z,26.56
2022-07-29T12:15:55.009Z,26.64
2022-07-29T12:18:24.083Z,27.02
2022-07-29T12:20:58.086Z,27.29
2022-07-29T12:23:24.304Z,27.45
2022-07-29T12:25:55.817Z,27.68
2022-07-29T12:28:26.861Z,27.78
2022-07-29T12:30:53.593Z,27.56
2022-07-29T12:33:27.780Z,27.37
2022-07-29T12:36:09.483Z,27.71
2022-07-29T12:38:40.870Z,28.03
2022-07-29T12:41:06.932Z,28.05
2022-07-29T12:43:32.961Z,27.75
2022-07-29T12:46:13.179Z,27.74
2022-07-29T12:48:41.663Z,27.97
2022-07-29T12:51:09.285Z,27.86
2022-07-29T12:53:36.218Z,28.23
2022-07-29T12:56:15.515Z,28.27
2022-07-29T12:58:51.927Z,28.56
2022-07-29T13:01:20.241Z,28.42
2022-07-29T13:03:56.999Z,28.55
2022-07-29T13:06:29.850Z,28.77
2022-07-29T13:09:08.292Z,28.79
2022-07-29T13:11:34.151Z,29.06
2022-07-29T13:14:06.518Z,28.58
2022-07-29T13:16:33.412Z,27.68
2022-07-29T13:19:11.427Z,27.01
2022-07-29T13:21:38.703Z,26.46
2022-07-29T13:24:06.408Z,26.25
2022-07-29T13:26:32.752Z,26.36
2022-07-29T13:28:58.631Z,26.29
2022-07-29T13:31:24.567Z,26.47
2022-07-29T13:33:50.538Z,26.25
2022-07-29T13:36:18.909Z,26.64
2022-07-29T13:38:44.905Z,26.62
2022-07-29T13:41:10.863Z,26.63
2022-07-29T13:43:36.805Z,26.56
2022-07-29T13:46:02.718Z,26.65
2022-07-29T13:48:28.642Z,27.00
2022-07-29T13:50:54.427Z,26.71
2022-07-29T13:53:20.379Z,26.42
2022-07-29T13:55:53.426Z,25.97
2022-07-29T13:58:19.307Z,26.08
2022-07-29T14:00:45.790Z,25.86
2022-07-29T14:03:11.689Z,25.81
2022-07-29T14:05:37.577Z,25.57
2022-07-29T14:08:03.615Z,25.85
2022-07-29T14:10:29.563Z,26.13
2022-07-29T14:12:55.345Z,26.09
2022-07-29T14:15:21.165Z,26.33
2022-07-29T14:17:47.000Z,26.26
2022-07-29T14:20:13.247Z,25.76
2022-07-29T14:22:42.638Z,25.30
2022-07-29T14:25:14.987Z,25.27
2022-07-29T14:27:42.022Z,25.33
2022-07-29T14:30:08.700Z,25.46
2022-07-29T14:32:34.579Z,25.37
2022-07-29T14:35:00.559Z,25.00
2022-07-29T14:37:26.408Z,24.92
2022-07-29T14:39:52.268Z,24.79
2022-07-29T14:42:18.073Z,24.95
2022-07-29T14:44:44.734Z,24.88
2022-07-29T14:47:10.671Z,24.97
2022-07-29T14:49:36.598Z,24.96
2022-07-29T14:52:02.955Z,24.77
2022-07-29T14:54:28.826Z,24.55
2022-07-29T14:56:57.188Z,24.46
2022-07-29T14:59:23.557Z,24.39
2022-07-29T15:01:50.143Z,24.49
2022-07-29T15:04:16.029Z,24.37
2022-07-29T15:06:41.962Z,24.69
2022-07-29T15:09:07.810Z,24.68
2022-07-29T15:11:38.211Z,25.05
2022-07-29T15:14:05.218Z,24.97
2022-07-29T15:16:31.148Z,24.91
2022-07-29T15:18:58.007Z,25.01
2022-07-29T15:21:28.637Z,25.33
2022-07-29T15:24:03.049Z,25.41
2022-07-29T15:26:31.457Z,26.18
2022-07-29T15:28:57.287Z,26.28
2022-07-29T15:31:23.278Z,26.63
2022-07-29T15:33:49.114Z,26.86
2022-07-29T15:36:42.246Z,26.85
2022-07-29T15:39:01.407Z,26.85
2022-07-29T15:41:27.327Z,26.70
2022-07-29T15:43:53.180Z,26.60
2022-07-29T15:46:38.197Z,26.30
2022-07-29T15:49:05.969Z,26.52
2022-07-29T15:51:32.351Z,26.78
2022-07-29T15:53:58.675Z,27.07
2022-07-29T15:56:24.560Z,26.89
2022-07-29T15:58:51.011Z,27.04
2022-07-29T16:01:17.094Z,26.93
2022-07-29T16:03:46.238Z,26.65
2022-07-29T16:06:13.352Z,26.93
2022-07-29T16:08:39.247Z,26.65
2022-07-29T16:11:05.089Z,26.52
2022-07-29T16:13:31.487Z,26.62
2022-07-29T16:16:06.629Z,26.53
2022-07-29T16:18:32.511Z,26.87
2022-07-29T16:20:58.476Z,26.64
2022-07-29T16:23:24.264Z,26.60
2022-07-29T16:25:59.787Z,26.29
2022-07-29T16:28:27.632Z,25.96
2022-07-29T16:30:53.683Z,26.37
2022-07-29T16:33:19.535Z,26.03
2022-07-29T16:35:45.354Z,25.94
2022-07-29T16:38:11.452Z,25.89
2022-07-29T16:40:38.192Z,26.21
2022-07-29T16:43:04.051Z,26.13
2022-07-29T16:45:44.413Z,26.04
2022-07-29T16:48:11.701Z,25.87
2022-07-29T16:50:38.217Z,25.74
2022-07-29T16:53:04.041Z,25.64
2022-07-29T16:55:29.848Z,25.56
2022-07-29T16:57:56.189Z,25.90
2022-07-29T17:00:22.911Z,25.64
2022-07-29T17:02:48.926Z,25.96
2022-07-29T17:05:15.128Z,25.79
2022-07-29T17:07:41.866Z,25.92
2022-07-29T17:10:09.417Z,25.51
2022-07-29T17:12:37.314Z,25.60
2022-07-29T17:15:05.420Z,25.36
2022-07-29T17:17:38.611Z,25.50
2022-07-29T17:20:17.806Z,25.40
2022-07-29T17:22:43.702Z,25.15
2022-07-29T17:25:09.990Z,25.19
2022-07-29T17:27:36.250Z,25.11
2022-07-29T17:30:04.987Z,24.87
2022-07-29T17:32:35.694Z,24.58
2022-07-29T17:35:02.932Z,24.32
2022-07-29T17:37:28.800Z,24.09
2022-07-29T17:39:58.609Z,24.00
2022-07-29T17:42:26.177Z,23.68
2022-07-29T17:44:52.424Z,23.58
2022-07-29T17:47:18.252Z,23.22
2022-07-29T17:49:44.772Z,23.29
2022-07-29T17:52:10.667Z,23.13
2022-07-29T17:54:36.488Z,23.19
2022-07-29T17:57:02.574Z,23.24
2022-07-29T17:59:28.513Z,23.17
2022-07-29T18:02:01.117Z,23.11
2022-07-29T18:04:27.961Z,22.91
2022-07-29T18:06:53.834Z,22.85
2022-07-29T18:09:19.678Z,22.95
2022-07-29T18:11:46.777Z,22.98
2022-07-29T18:14:12.746Z,23.27
2022-07-29T18:16:38.752Z,23.41
2022-07-29T18:19:04.799Z,23.22
2022-07-29T18:21:42.591Z,23.04
2022-07-29T18:24:16.513Z,22.94
2022-07-29T18:26:42.339Z,22.82
2022-07-29T18:29:10.455Z,22.71
2022-07-29T18:31:36.766Z,22.74
2022-07-29T18:34:02.706Z,22.61
2022-07-29T18:36:28.572Z,22.56
2022-07-29T18:38:54.806Z,22.64
2022-07-29T18:41:20.630Z,22.47
2022-07-29T18:43:46.474Z,22.54
2022-07-29T18:46:12.932Z,22.30
2022-07-29T18:48:38.891Z,22.13
2022-07-29T18:51:09.141Z,22.09
2022-07-29T18:53:35.962Z,22.05
2022-07-29T18:56:02.846Z,21.99
2022-07-29T18:58:28.837Z,21.98
2022-07-29T19:00:54.652Z,21.64
2022-07-29T19:03:20.512Z,21.75
2022-07-29T19:05:46.381Z,21.64
2022-07-29T19:08:13.657Z,21.45
2022-07-29T19:10:39.667Z,21.39
2022-07-29T19:13:06.086Z,21.34
2022-07-29T19:15:31.967Z,21.37
2022-07-29T19:18:01.137Z,21.34
2022-07-29T19:20:27.626Z,21.18
2022-07-29T19:22:53.670Z,21.16
2022-07-29T19:25:19.623Z,21.17
2022-07-29T19:27:46.093Z,21.25
2022-07-29T19:30:12.248Z,21.19
2022-07-29T19:32:38.229Z,21.05
2022-07-29T19:35:23.718Z,21.06
2022-07-29T19:37:50.170Z,21.10
2022-07-29T19:40:16.255Z,21.14
2022-07-29T19:42:42.911Z,21.07
2022-07-29T19:45:09.948Z,21.02
2022-07-29T19:47:35.812Z,20.86
2022-07-29T19:50:01.747Z,20.85
2022-07-29T19:52:27.994Z,20.81
2022-07-29T19:54:54.025Z,20.84
2022-07-29T19:57:19.913Z,20.80
2022-07-29T19:59:45.815Z,20.82
2022-07-29T20:02:12.394Z,20.86
2022-07-29T20:04:38.537Z,20.82
2022-07-29T20:07:05.590Z,20.86
2022-07-29T20:09:31.559Z,20.81
2022-07-29T20:11:57.722Z,20.74
2022-07-29T20:14:23.703Z,20.74
2022-07-29T20:16:49.931Z,20.59
2022-07-29T20:19:16.471Z,20.50
2022-07-29T20:21:42.328Z,20.55
2022-07-29T20:24:09.611Z,20.52
2022-07-29T20:26:35.475Z,20.51
2022-07-29T20:29:04.391Z,20.47
2022-07-29T20:31:33.561Z,20.60
2022-07-29T20:34:01.126Z,20.49
2022-07-29T20:36:27.643Z,20.43
2022-07-29T20:38:54.300Z,20.50
2022-07-29T20:41:20.722Z,20.42
2022-07-29T20:43:48.934Z,20.28
2022-07-29T20:46:15.637Z,20.13
2022-07-29T20:48:41.559Z,20.21
2022-07-29T20:51:07.576Z,20.23
2022-07-29T20:53:36.509Z,20.18
2022-07-29T20:56:02.604Z,20.22
2022-07-29T20:58:28.435Z,20.14
2022-07-29T21:00:54.311Z,20.18
2022-07-29T21:03:20.429Z,20.18
2022-07-29T21:05:46.396Z,20.13
2022-07-29T21:08:12.309Z,20.09
2022-07-29T21:10:38.175Z,20.07
2022-07-29T21:13:04.021Z,20.13
2022-07-29T21:15:30.208Z,20.11
2022-07-29T21:18:01.426Z,20.13
2022-07-29T21:20:28.423Z,20.14
2022-07-29T21:22:54.931Z,20.17
2022-07-29T21:25:22.304Z,20.08
2022-07-29T21:28:07.111Z,20.01
2022-07-29T21:30:33.211Z,20.01
2022-07-29T21:32:59.075Z,20.02
2022-07-29T21:36:02.106Z,19.97
2022-07-29T21:38:11.664Z,20.05
2022-07-29T21:40:37.742Z,20.11
2022-07-29T21:43:03.614Z,20.15
2022-07-29T21:45:29.759Z,20.16
2022-07-29T21:47:55.702Z,20.14
2022-07-29T21:50:21.626Z,20.11
2022-07-29T21:52:47.452Z,20.06
2022-07-29T21:55:13.369Z,20.11
2022-07-29T21:57:39.637Z,20.16
2022-07-29T22:00:07.113Z,20.07
2022-07-29T22:02:32.956Z,20.01
2022-07-29T22:04:58.892Z,19.97
2022-07-29T22:07:24.764Z,20.02
2022-07-29T22:10:10.778Z,20.04
2022-07-29T22:12:36.868Z,20.06
2022-07-29T22:15:03.753Z,20.01
2022-07-29T22:17:29.813Z,20.00
2022-07-29T22:19:57.654Z,20.01
2022-07-29T22:22:23.864Z,19.99
2022-07-29T22:24:49.878Z,19.95
2022-07-29T22:27:15.872Z,19.71
2022-07-29T22:29:41.702Z,19.72
2022-07-29T22:32:07.629Z,19.72
2022-07-29T22:34:38.021Z,19.61
2022-07-29T22:37:04.178Z,19.57
2022-07-29T22:39:30.096Z,19.60
2022-07-29T22:41:55.932Z,19.61
2022-07-29T22:44:22.002Z,19.62
2022-07-29T22:46:47.921Z,19.62
2022-07-29T22:49:13.803Z,19.63
2022-07-29T22:51:40.043Z,19.68
2022-07-29T22:54:05.880Z,19.66
2022-07-29T22:56:31.697Z,19.63
2022-07-29T22:58:57.826Z,19.60
2022-07-29T23:01:35.811Z,19.65
2022-07-29T23:04:03.773Z,19.62
2022-07-29T23:06:29.728Z,19.59
2022-07-29T23:08:55.571Z,19.63
2022-07-29T23:11:21.473Z,19.52
2022-07-29T23:13:47.328Z,19.67
2022-07-29T23:16:13.571Z,19.72
2022-07-29T23:18:39.394Z,19.71
2022-07-29T23:21:05.465Z,19.63
2022-07-29T23:23:32.388Z,19.52
2022-07-29T23:25:58.403Z,19.51
2022-07-29T23:28:24.480Z,19.57
2022-07-29T23:30:50.474Z,19.53
2022-07-29T23:33:16.355Z,19.53
2022-07-29T23:35:42.205Z,19.60
2022-07-29T23:38:08.073Z,19.67
2022-07-29T23:40:33.878Z,19.66
2022-07-29T23:42:59.697Z,19.63
2022-07-29T23:45:42.729Z,19.52
2022-07-29T23:48:11.017Z,19.56
2022-07-29T23:50:36.851Z,19.61
2022-07-29T23:53:02.944Z,19.63
2022-07-29T23:55:38.212Z,19.64
2022-07-29T23:58:04.901Z,19.61
